sensor_id;sensor_type;location;lat;lon;timestamp;P1;durP1;ratioP1;P2;durP2;ratioP2
42030;SDS011;27709;52.036;5.906;2023-03-01T00:01:59;6.07;;;3.60;;
42030;SDS011;27709;52.036;5.906;2023-03-01T00:04:25;6.18;;;3.53;;
42030;SDS011;27709;52.036;5.906;2023-03-01T00:06:50;6.13;;;3.88;;
42030;SDS011;27709;52.036;5.906;2023-03-01T00:09:16;6.68;;;3.85;;
42030;SDS011;27709;52.036;5.906;2023-03-01T00:11:42;5.43;;;3.22;;
42030;SDS011;27709;52.036;5.906;2023-03-01T00:14:08;5.07;;;2.92;;
42030;SDS011;27709;52.036;5.906;2023-03-01T00:16:34;5.85;;;3.40;;
42030;SDS011;27709;52.036;5.906;2023-03-01T00:19:03;5.40;;;3.33;;
42030;SDS011;27709;52.036;5.906;2023-03-01T00:21:30;4.57;;;3.22;;
42030;SDS011;27709;52.036;5.906;2023-03-01T00:23:56;5.15;;;3.30;;
42030;SDS011;27709;52.036;5.906;2023-03-01T00:26:22;7.22;;;3.75;;
42030;SDS011;27709;52.036;5.906;2023-03-01T00:28:49;6.22;;;3.65;;
42030;SDS011;27709;52.036;5.906;2023-03-01T00:31:16;6.15;;;3.30;;
42030;SDS011;27709;52.036;5.906;2023-03-01T00:33:43;8.43;;;3.53;;
42030;SDS011;27709;52.036;5.906;2023-03-01T00:36:10;5.57;;;3.75;;
42030;SDS011;27709;52.036;5.906;2023-03-01T00:38:38;6.93;;;3.85;;
42030;SDS011;27709;52.036;5.906;2023-03-01T00:41:05;7.03;;;3.72;;
42030;SDS011;27709;52.036;5.906;2023-03-01T00:43:35;7.05;;;4.00;;
42030;SDS011;27709;52.036;5.906;2023-03-01T00:46:07;8.35;;;3.90;;
42030;SDS011;27709;52.036;5.906;2023-03-01T00:48:37;5.38;;;3.72;;
42030;SDS011;27709;52.036;5.906;2023-03-01T00:51:25;6.63;;;3.97;;
42030;SDS011;27709;52.036;5.906;2023-03-01T00:53:51;6.35;;;3.53;;
42030;SDS011;27709;52.036;5.906;2023-03-01T00:56:18;7.68;;;3.70;;
42030;SDS011;27709;52.036;5.906;2023-03-01T00:58:44;5.60;;;3.60;;
42030;SDS011;27709;52.036;5.906;2023-03-01T01:01:11;7.20;;;3.80;;
42030;SDS011;27709;52.036;5.906;2023-03-01T01:03:49;5.13;;;2.90;;
42030;SDS011;27709;52.036;5.906;2023-03-01T01:06:38;6.90;;;4.22;;
42030;SDS011;27709;52.036;5.906;2023-03-01T01:09:09;8.43;;;4.60;;
42030;SDS011;27709;52.036;5.906;2023-03-01T01:11:47;6.57;;;4.10;;
42030;SDS011;27709;52.036;5.906;2023-03-01T01:14:14;8.38;;;4.40;;
42030;SDS011;27709;52.036;5.906;2023-03-01T01:16:45;5.90;;;3.53;;
42030;SDS011;27709;52.036;5.906;2023-03-01T01:19:10;8.23;;;4.45;;
42030;SDS011;27709;52.036;5.906;2023-03-01T01:21:36;6.22;;;4.15;;
42030;SDS011;27709;52.036;5.906;2023-03-01T01:24:03;8.02;;;4.30;;
42030;SDS011;27709;52.036;5.906;2023-03-01T01:26:30;6.75;;;4.40;;
42030;SDS011;27709;52.036;5.906;2023-03-01T01:28:58;7.65;;;4.90;;
42030;SDS011;27709;52.036;5.906;2023-03-01T01:31:24;9.18;;;5.05;;
42030;SDS011;27709;52.036;5.906;2023-03-01T01:33:51;6.82;;;4.30;;
42030;SDS011;27709;52.036;5.906;2023-03-01T01:36:18;8.30;;;4.53;;
42030;SDS011;27709;52.036;5.906;2023-03-01T01:38:43;8.43;;;4.82;;
42030;SDS011;27709;52.036;5.906;2023-03-01T01:41:10;7.70;;;4.70;;
42030;SDS011;27709;52.036;5.906;2023-03-01T01:43:38;8.00;;;4.43;;
42030;SDS011;27709;52.036;5.906;2023-03-01T01:49:02;7.68;;;4.57;;
42030;SDS011;27709;52.036;5.906;2023-03-01T01:51:31;7.38;;;4.65;;
42030;SDS011;27709;52.036;5.906;2023-03-01T01:54:03;6.30;;;4.10;;
42030;SDS011;27709;52.036;5.906;2023-03-01T01:56:36;9.20;;;5.10;;
42030;SDS011;27709;52.036;5.906;2023-03-01T01:59:03;7.50;;;4.57;;
42030;SDS011;27709;52.036;5.906;2023-03-01T02:01:30;9.38;;;5.75;;
42030;SDS011;27709;52.036;5.906;2023-03-01T02:03:55;7.93;;;5.10;;
42030;SDS011;27709;52.036;5.906;2023-03-01T02:06:24;10.13;;;5.32;;
42030;SDS011;27709;52.036;5.906;2023-03-01T02:08:54;8.68;;;5.78;;
42030;SDS011;27709;52.036;5.906;2023-03-01T02:11:24;11.23;;;5.47;;
42030;SDS011;27709;52.036;5.906;2023-03-01T02:13:50;10.00;;;5.25;;
42030;SDS011;27709;52.036;5.906;2023-03-01T02:16:18;9.43;;;5.05;;
42030;SDS011;27709;52.036;5.906;2023-03-01T02:18:44;9.65;;;5.68;;
42030;SDS011;27709;52.036;5.906;2023-03-01T02:23:58;9.57;;;5.65;;
42030;SDS011;27709;52.036;5.906;2023-03-01T02:29:02;8.55;;;5.72;;
42030;SDS011;27709;52.036;5.906;2023-03-01T02:31:30;10.50;;;5.38;;
42030;SDS011;27709;52.036;5.906;2023-03-01T02:36:57;8.48;;;4.72;;
42030;SDS011;27709;52.036;5.906;2023-03-01T02:39:33;8.60;;;5.20;;
42030;SDS011;27709;52.036;5.906;2023-03-01T02:42:06;8.38;;;5.07;;
42030;SDS011;27709;52.036;5.906;2023-03-01T02:44:37;9.00;;;5.38;;
42030;SDS011;27709;52.036;5.906;2023-03-01T02:47:03;7.70;;;5.00;;
42030;SDS011;27709;52.036;5.906;2023-03-01T02:49:31;8.52;;;5.40;;
42030;SDS011;27709;52.036;5.906;2023-03-01T02:52:04;9.73;;;5.45;;
42030;SDS011;27709;52.036;5.906;2023-03-01T02:55:03;8.77;;;5.50;;
42030;SDS011;27709;52.036;5.906;2023-03-01T02:57:33;7.95;;;4.82;;
42030;SDS011;27709;52.036;5.906;2023-03-01T03:00:11;8.30;;;5.25;;
42030;SDS011;27709;52.036;5.906;2023-03-01T03:02:46;9.57;;;5.55;;
42030;SDS011;27709;52.036;5.906;2023-03-01T03:05:17;8.98;;;5.45;;
42030;SDS011;27709;52.036;5.906;2023-03-01T03:08:00;10.88;;;5.72;;
42030;SDS011;27709;52.036;5.906;2023-03-01T03:10:34;8.93;;;5.15;;
42030;SDS011;27709;52.036;5.906;2023-03-01T03:13:05;9.77;;;6.10;;
42030;SDS011;27709;52.036;5.906;2023-03-01T03:18:12;9.18;;;5.82;;
42030;SDS011;27709;52.036;5.906;2023-03-01T03:20:39;8.88;;;5.40;;
42030;SDS011;27709;52.036;5.906;2023-03-01T03:23:06;7.53;;;4.72;;
42030;SDS011;27709;52.036;5.906;2023-03-01T03:25:35;8.25;;;5.70;;
42030;SDS011;27709;52.036;5.906;2023-03-01T03:28:02;12.10;;;6.28;;
42030;SDS011;27709;52.036;5.906;2023-03-01T03:30:35;12.63;;;6.40;;
42030;SDS011;27709;52.036;5.906;2023-03-01T03:33:05;9.95;;;6.20;;
42030;SDS011;27709;52.036;5.906;2023-03-01T03:35:37;9.25;;;5.85;;
42030;SDS011;27709;52.036;5.906;2023-03-01T03:38:11;10.18;;;6.18;;
42030;SDS011;27709;52.036;5.906;2023-03-01T03:43:16;10.15;;;5.95;;
42030;SDS011;27709;52.036;5.906;2023-03-01T03:45:47;11.48;;;6.70;;
42030;SDS011;27709;52.036;5.906;2023-03-01T03:48:14;10.68;;;6.53;;
42030;SDS011;27709;52.036;5.906;2023-03-01T03:50:46;10.85;;;6.20;;
42030;SDS011;27709;52.036;5.906;2023-03-01T03:53:14;9.80;;;6.00;;
42030;SDS011;27709;52.036;5.906;2023-03-01T03:55:41;12.07;;;6.50;;
42030;SDS011;27709;52.036;5.906;2023-03-01T03:58:09;10.80;;;5.75;;
42030;SDS011;27709;52.036;5.906;2023-03-01T05:30:00;11.45;;;6.20;;
42030;SDS011;27709;52.036;5.906;2023-03-01T05:33:11;13.23;;;6.72;;
42030;SDS011;27709;52.036;5.906;2023-03-01T05:35:59;11.20;;;6.88;;
42030;SDS011;27709;52.036;5.906;2023-03-01T05:38:25;11.77;;;6.28;;
42030;SDS011;27709;52.036;5.906;2023-03-01T05:40:50;11.35;;;6.93;;
42030;SDS011;27709;52.036;5.906;2023-03-01T05:43:16;9.60;;;6.55;;
42030;SDS011;27709;52.036;5.906;2023-03-01T05:45:42;10.50;;;6.25;;
42030;SDS011;27709;52.036;5.906;2023-03-01T05:48:08;10.75;;;6.45;;
42030;SDS011;27709;52.036;5.906;2023-03-01T05:50:35;9.73;;;5.88;;
42030;SDS011;27709;52.036;5.906;2023-03-01T05:53:05;13.27;;;6.68;;
42030;SDS011;27709;52.036;5.906;2023-03-01T05:55:34;12.05;;;6.75;;
42030;SDS011;27709;52.036;5.906;2023-03-01T05:58:01;11.68;;;6.03;;
42030;SDS011;27709;52.036;5.906;2023-03-01T06:00:29;11.52;;;6.07;;
42030;SDS011;27709;52.036;5.906;2023-03-01T06:02:55;10.23;;;5.75;;
42030;SDS011;27709;52.036;5.906;2023-03-01T06:05:22;13.15;;;6.68;;
42030;SDS011;27709;52.036;5.906;2023-03-01T06:07:48;10.57;;;6.43;;
42030;SDS011;27709;52.036;5.906;2023-03-01T06:10:15;11.35;;;6.75;;
42030;SDS011;27709;52.036;5.906;2023-03-01T06:12:42;12.48;;;7.03;;
42030;SDS011;27709;52.036;5.906;2023-03-01T06:15:09;13.65;;;6.63;;
42030;SDS011;27709;52.036;5.906;2023-03-01T06:17:36;11.70;;;7.10;;
42030;SDS011;27709;52.036;5.906;2023-03-01T06:20:06;11.15;;;6.97;;
42030;SDS011;27709;52.036;5.906;2023-03-01T06:22:46;10.30;;;6.90;;
42030;SDS011;27709;52.036;5.906;2023-03-01T06:25:14;13.82;;;7.25;;
42030;SDS011;27709;52.036;5.906;2023-03-01T06:27:42;13.45;;;6.90;;
42030;SDS011;27709;52.036;5.906;2023-03-01T06:30:08;10.60;;;6.88;;
42030;SDS011;27709;52.036;5.906;2023-03-01T06:32:35;11.95;;;6.72;;
42030;SDS011;27709;52.036;5.906;2023-03-01T06:35:02;12.27;;;6.70;;
42030;SDS011;27709;52.036;5.906;2023-03-01T06:37:28;11.27;;;6.90;;
42030;SDS011;27709;52.036;5.906;2023-03-01T06:39:54;15.55;;;6.95;;
42030;SDS011;27709;52.036;5.906;2023-03-01T06:42:19;13.05;;;7.38;;
42030;SDS011;27709;52.036;5.906;2023-03-01T06:44:45;11.02;;;6.40;;
42030;SDS011;27709;52.036;5.906;2023-03-01T06:47:11;10.93;;;6.65;;
42030;SDS011;27709;52.036;5.906;2023-03-01T06:49:36;12.18;;;6.38;;
42030;SDS011;27709;52.036;5.906;2023-03-01T06:52:02;12.18;;;6.72;;
42030;SDS011;27709;52.036;5.906;2023-03-01T06:54:27;11.90;;;6.40;;
42030;SDS011;27709;52.036;5.906;2023-03-01T06:56:53;14.30;;;6.72;;
42030;SDS011;27709;52.036;5.906;2023-03-01T06:59:19;12.63;;;7.05;;
42030;SDS011;27709;52.036;5.906;2023-03-01T07:01:44;13.20;;;7.45;;
42030;SDS011;27709;52.036;5.906;2023-03-01T07:04:10;11.95;;;6.93;;
42030;SDS011;27709;52.036;5.906;2023-03-01T07:06:37;14.27;;;7.55;;
42030;SDS011;27709;52.036;5.906;2023-03-01T07:09:02;10.30;;;6.53;;
42030;SDS011;27709;52.036;5.906;2023-03-01T07:11:28;11.57;;;6.88;;
42030;SDS011;27709;52.036;5.906;2023-03-01T07:13:53;10.85;;;7.25;;
42030;SDS011;27709;52.036;5.906;2023-03-01T07:16:20;11.95;;;7.20;;
42030;SDS011;27709;52.036;5.906;2023-03-01T07:18:46;13.13;;;7.38;;
42030;SDS011;27709;52.036;5.906;2023-03-01T07:21:13;14.88;;;7.97;;
42030;SDS011;27709;52.036;5.906;2023-03-01T07:23:39;13.07;;;6.82;;
42030;SDS011;27709;52.036;5.906;2023-03-01T07:26:05;10.52;;;6.97;;
42030;SDS011;27709;52.036;5.906;2023-03-01T07:28:31;12.20;;;6.97;;
42030;SDS011;27709;52.036;5.906;2023-03-01T07:31:01;12.93;;;7.45;;
42030;SDS011;27709;52.036;5.906;2023-03-01T07:33:28;12.30;;;6.60;;
42030;SDS011;27709;52.036;5.906;2023-03-01T07:35:57;11.68;;;6.60;;
42030;SDS011;27709;52.036;5.906;2023-03-01T07:38:27;12.88;;;7.28;;
42030;SDS011;27709;52.036;5.906;2023-03-01T07:40:57;10.77;;;6.45;;
42030;SDS011;27709;52.036;5.906;2023-03-01T07:43:26;12.35;;;7.13;;
42030;SDS011;27709;52.036;5.906;2023-03-01T07:45:52;11.30;;;7.18;;
42030;SDS011;27709;52.036;5.906;2023-03-01T07:48:18;10.10;;;7.03;;
42030;SDS011;27709;52.036;5.906;2023-03-01T07:50:44;12.30;;;6.60;;
42030;SDS011;27709;52.036;5.906;2023-03-01T07:53:09;11.63;;;6.95;;
42030;SDS011;27709;52.036;5.906;2023-03-01T07:55:35;11.55;;;6.82;;
42030;SDS011;27709;52.036;5.906;2023-03-01T07:58:01;12.02;;;7.40;;
42030;SDS011;27709;52.036;5.906;2023-03-01T08:00:27;12.73;;;7.57;;
42030;SDS011;27709;52.036;5.906;2023-03-01T08:02:52;10.75;;;7.10;;
42030;SDS011;27709;52.036;5.906;2023-03-01T08:05:18;11.32;;;7.70;;
42030;SDS011;27709;52.036;5.906;2023-03-01T08:07:43;9.30;;;6.45;;
42030;SDS011;27709;52.036;5.906;2023-03-01T08:10:09;10.80;;;6.70;;
42030;SDS011;27709;52.036;5.906;2023-03-01T08:12:35;12.32;;;7.28;;
42030;SDS011;27709;52.036;5.906;2023-03-01T08:15:01;14.10;;;6.93;;
42030;SDS011;27709;52.036;5.906;2023-03-01T08:17:26;8.95;;;6.18;;
42030;SDS011;27709;52.036;5.906;2023-03-01T08:19:52;9.68;;;6.20;;
42030;SDS011;27709;52.036;5.906;2023-03-01T08:22:18;9.20;;;6.38;;
42030;SDS011;27709;52.036;5.906;2023-03-01T08:24:46;9.90;;;6.40;;
42030;SDS011;27709;52.036;5.906;2023-03-01T08:27:11;9.20;;;6.30;;
42030;SDS011;27709;52.036;5.906;2023-03-01T08:29:46;10.75;;;6.60;;
42030;SDS011;27709;52.036;5.906;2023-03-01T08:32:17;10.23;;;6.18;;
42030;SDS011;27709;52.036;5.906;2023-03-01T08:34:45;10.48;;;6.15;;
42030;SDS011;27709;52.036;5.906;2023-03-01T08:37:12;8.70;;;6.00;;
42030;SDS011;27709;52.036;5.906;2023-03-01T08:39:37;9.80;;;5.88;;
42030;SDS011;27709;52.036;5.906;2023-03-01T08:42:03;6.90;;;5.15;;
42030;SDS011;27709;52.036;5.906;2023-03-01T08:44:29;8.45;;;6.03;;
42030;SDS011;27709;52.036;5.906;2023-03-01T08:46:54;9.82;;;5.65;;
42030;SDS011;27709;52.036;5.906;2023-03-01T08:49:20;8.32;;;5.47;;
42030;SDS011;27709;52.036;5.906;2023-03-01T08:51:46;10.70;;;6.13;;
42030;SDS011;27709;52.036;5.906;2023-03-01T08:54:13;8.80;;;5.55;;
42030;SDS011;27709;52.036;5.906;2023-03-01T08:56:46;9.80;;;6.10;;
42030;SDS011;27709;52.036;5.906;2023-03-01T08:59:12;7.80;;;5.60;;
42030;SDS011;27709;52.036;5.906;2023-03-01T09:01:39;9.00;;;5.47;;
42030;SDS011;27709;52.036;5.906;2023-03-01T09:04:05;7.90;;;4.88;;
42030;SDS011;27709;52.036;5.906;2023-03-01T09:06:31;10.48;;;5.78;;
42030;SDS011;27709;52.036;5.906;2023-03-01T09:08:58;8.57;;;4.57;;
42030;SDS011;27709;52.036;5.906;2023-03-01T09:11:23;8.07;;;5.07;;
42030;SDS011;27709;52.036;5.906;2023-03-01T09:13:49;7.53;;;4.30;;
42030;SDS011;27709;52.036;5.906;2023-03-01T09:16:16;6.30;;;4.60;;
42030;SDS011;27709;52.036;5.906;2023-03-01T09:18:43;5.82;;;4.30;;
42030;SDS011;27709;52.036;5.906;2023-03-01T09:21:10;7.43;;;4.38;;
42030;SDS011;27709;52.036;5.906;2023-03-01T09:23:38;7.80;;;3.90;;
42030;SDS011;27709;52.036;5.906;2023-03-01T09:26:12;7.30;;;4.20;;
42030;SDS011;27709;52.036;5.906;2023-03-01T09:31:11;7.45;;;3.55;;
42030;SDS011;27709;52.036;5.906;2023-03-01T09:33:39;5.57;;;3.90;;
42030;SDS011;27709;52.036;5.906;2023-03-01T09:36:07;5.80;;;3.30;;
42030;SDS011;27709;52.036;5.906;2023-03-01T09:38:36;6.28;;;4.03;;
42030;SDS011;27709;52.036;5.906;2023-03-01T09:41:02;5.30;;;3.50;;
42030;SDS011;27709;52.036;5.906;2023-03-01T09:43:42;5.20;;;3.25;;
42030;SDS011;27709;52.036;5.906;2023-03-01T09:46:12;5.38;;;3.28;;
42030;SDS011;27709;52.036;5.906;2023-03-01T09:48:43;6.00;;;3.47;;
42030;SDS011;27709;52.036;5.906;2023-03-01T09:53:44;8.82;;;4.07;;
42030;SDS011;27709;52.036;5.906;2023-03-01T09:56:17;6.30;;;3.78;;
42030;SDS011;27709;52.036;5.906;2023-03-01T09:58:53;7.30;;;4.10;;
42030;SDS011;27709;52.036;5.906;2023-03-01T10:06:43;6.60;;;4.47;;
42030;SDS011;27709;52.036;5.906;2023-03-01T10:09:19;6.95;;;4.65;;
42030;SDS011;27709;52.036;5.906;2023-03-01T10:11:47;9.55;;;5.68;;
42030;SDS011;27709;52.036;5.906;2023-03-01T10:14:35;8.40;;;5.75;;
42030;SDS011;27709;52.036;5.906;2023-03-01T10:22:17;10.65;;;6.57;;
42030;SDS011;27709;52.036;5.906;2023-03-01T10:24:47;9.07;;;6.68;;
42030;SDS011;27709;52.036;5.906;2023-03-01T10:27:18;8.45;;;5.82;;
42030;SDS011;27709;52.036;5.906;2023-03-01T10:29:53;7.68;;;4.80;;
42030;SDS011;27709;52.036;5.906;2023-03-01T10:32:28;7.78;;;4.93;;
42030;SDS011;27709;52.036;5.906;2023-03-01T10:34:55;6.72;;;4.88;;
42030;SDS011;27709;52.036;5.906;2023-03-01T10:37:22;8.23;;;4.57;;
42030;SDS011;27709;52.036;5.906;2023-03-01T10:39:56;7.57;;;4.72;;
42030;SDS011;27709;52.036;5.906;2023-03-01T10:42:34;5.93;;;4.05;;
42030;SDS011;27709;52.036;5.906;2023-03-01T10:45:15;7.05;;;4.22;;
42030;SDS011;27709;52.036;5.906;2023-03-01T10:48:01;7.57;;;4.50;;
42030;SDS011;27709;52.036;5.906;2023-03-01T10:53:28;7.35;;;4.80;;
42030;SDS011;27709;52.036;5.906;2023-03-01T10:58:28;6.40;;;3.58;;
42030;SDS011;27709;52.036;5.906;2023-03-01T11:00:57;6.45;;;3.60;;
42030;SDS011;27709;52.036;5.906;2023-03-01T11:03:27;6.40;;;3.65;;
42030;SDS011;27709;52.036;5.906;2023-03-01T11:06:12;6.65;;;3.65;;
42030;SDS011;27709;52.036;5.906;2023-03-01T11:08:47;4.47;;;3.08;;
42030;SDS011;27709;52.036;5.906;2023-03-01T11:14:14;5.63;;;3.55;;
42030;SDS011;27709;52.036;5.906;2023-03-01T11:16:44;6.50;;;3.60;;
42030;SDS011;27709;52.036;5.906;2023-03-01T11:19:14;5.72;;;3.30;;
42030;SDS011;27709;52.036;5.906;2023-03-01T11:21:47;5.40;;;3.53;;
42030;SDS011;27709;52.036;5.906;2023-03-01T11:24:16;5.47;;;3.22;;
42030;SDS011;27709;52.036;5.906;2023-03-01T11:26:44;6.10;;;3.65;;
42030;SDS011;27709;52.036;5.906;2023-03-01T11:29:30;6.00;;;3.33;;
42030;SDS011;27709;52.036;5.906;2023-03-01T11:32:03;6.15;;;3.33;;
42030;SDS011;27709;52.036;5.906;2023-03-01T11:34:38;7.15;;;3.70;;
42030;SDS011;27709;52.036;5.906;2023-03-01T11:37:10;5.68;;;3.70;;
42030;SDS011;27709;52.036;5.906;2023-03-01T11:39:53;4.45;;;3.00;;
42030;SDS011;27709;52.036;5.906;2023-03-01T11:42:38;6.32;;;3.70;;
42030;SDS011;27709;52.036;5.906;2023-03-01T11:45:09;5.05;;;3.47;;
42030;SDS011;27709;52.036;5.906;2023-03-01T11:50:40;7.78;;;4.18;;
42030;SDS011;27709;52.036;5.906;2023-03-01T11:53:19;6.85;;;3.88;;
42030;SDS011;27709;52.036;5.906;2023-03-01T12:09:14;6.07;;;3.75;;
42030;SDS011;27709;52.036;5.906;2023-03-01T12:14:45;8.30;;;3.90;;
42030;SDS011;27709;52.036;5.906;2023-03-01T12:17:24;6.55;;;3.92;;
42030;SDS011;27709;52.036;5.906;2023-03-01T12:23:04;7.95;;;3.90;;
42030;SDS011;27709;52.036;5.906;2023-03-01T12:25:48;6.53;;;3.67;;
42030;SDS011;27709;52.036;5.906;2023-03-01T12:28:40;6.40;;;4.20;;
42030;SDS011;27709;52.036;5.906;2023-03-01T12:34:15;6.03;;;3.58;;
42030;SDS011;27709;52.036;5.906;2023-03-01T12:50:21;5.97;;;3.80;;
42030;SDS011;27709;52.036;5.906;2023-03-01T12:52:53;6.80;;;3.97;;
42030;SDS011;27709;52.036;5.906;2023-03-01T12:55:26;6.75;;;4.30;;
42030;SDS011;27709;52.036;5.906;2023-03-01T13:06:12;7.45;;;4.00;;
42030;SDS011;27709;52.036;5.906;2023-03-01T13:11:31;6.50;;;3.92;;
42030;SDS011;27709;52.036;5.906;2023-03-01T13:14:45;7.05;;;3.90;;
42030;SDS011;27709;52.036;5.906;2023-03-01T13:16:49;8.30;;;4.20;;
42030;SDS011;27709;52.036;5.906;2023-03-01T13:19:19;8.15;;;4.28;;
42030;SDS011;27709;52.036;5.906;2023-03-01T13:21:47;6.55;;;3.90;;
42030;SDS011;27709;52.036;5.906;2023-03-01T13:24:27;8.50;;;4.20;;
42030;SDS011;27709;52.036;5.906;2023-03-01T13:27:09;5.53;;;3.70;;
42030;SDS011;27709;52.036;5.906;2023-03-01T13:32:23;5.07;;;3.60;;
42030;SDS011;27709;52.036;5.906;2023-03-01T13:37:27;5.70;;;3.97;;
42030;SDS011;27709;52.036;5.906;2023-03-01T13:39:56;7.55;;;4.13;;
42030;SDS011;27709;52.036;5.906;2023-03-01T13:45:04;5.95;;;4.30;;
42030;SDS011;27709;52.036;5.906;2023-03-01T13:47:42;6.82;;;4.22;;
42030;SDS011;27709;52.036;5.906;2023-03-01T13:50:16;7.20;;;4.40;;
42030;SDS011;27709;52.036;5.906;2023-03-01T13:52:53;7.85;;;3.83;;
42030;SDS011;27709;52.036;5.906;2023-03-01T13:55:35;7.15;;;4.15;;
42030;SDS011;27709;52.036;5.906;2023-03-01T13:58:48;6.60;;;4.30;;
42030;SDS011;27709;52.036;5.906;2023-03-01T14:01:25;6.50;;;4.38;;
42030;SDS011;27709;52.036;5.906;2023-03-01T14:03:55;7.28;;;4.28;;
42030;SDS011;27709;52.036;5.906;2023-03-01T14:06:22;7.97;;;4.75;;
42030;SDS011;27709;52.036;5.906;2023-03-01T14:08:50;7.15;;;4.15;;
42030;SDS011;27709;52.036;5.906;2023-03-01T14:14:19;7.00;;;4.28;;
42030;SDS011;27709;52.036;5.906;2023-03-01T14:19:30;8.02;;;4.70;;
42030;SDS011;27709;52.036;5.906;2023-03-01T14:24:55;5.57;;;3.40;;
42030;SDS011;27709;52.036;5.906;2023-03-01T14:27:27;5.30;;;3.80;;
42030;SDS011;27709;52.036;5.906;2023-03-01T14:29:59;7.28;;;3.97;;
42030;SDS011;27709;52.036;5.906;2023-03-01T14:32:27;7.57;;;3.92;;
42030;SDS011;27709;52.036;5.906;2023-03-01T14:34:55;7.25;;;4.63;;
42030;SDS011;27709;52.036;5.906;2023-03-01T14:37:29;7.20;;;3.78;;
42030;SDS011;27709;52.036;5.906;2023-03-01T14:39:58;6.47;;;4.05;;
42030;SDS011;27709;52.036;5.906;2023-03-01T14:42:26;6.15;;;3.78;;
42030;SDS011;27709;52.036;5.906;2023-03-01T14:44:55;6.53;;;3.85;;
42030;SDS011;27709;52.036;5.906;2023-03-01T14:47:27;6.97;;;3.85;;
42030;SDS011;27709;52.036;5.906;2023-03-01T14:50:01;7.93;;;4.18;;
42030;SDS011;27709;52.036;5.906;2023-03-01T14:52:48;7.03;;;3.58;;
42030;SDS011;27709;52.036;5.906;2023-03-01T14:57:56;5.68;;;2.90;;
42030;SDS011;27709;52.036;5.906;2023-03-01T15:00:27;5.18;;;3.05;;
42030;SDS011;27709;52.036;5.906;2023-03-01T15:02:54;6.28;;;3.65;;
42030;SDS011;27709;52.036;5.906;2023-03-01T15:05:29;5.55;;;3.33;;
42030;SDS011;27709;52.036;5.906;2023-03-01T15:07:58;5.43;;;3.60;;
42030;SDS011;27709;52.036;5.906;2023-03-01T15:10:27;6.30;;;3.63;;
42030;SDS011;27709;52.036;5.906;2023-03-01T15:12:55;5.82;;;3.38;;
42030;SDS011;27709;52.036;5.906;2023-03-01T15:17:54;4.28;;;2.47;;
42030;SDS011;27709;52.036;5.906;2023-03-01T15:20:22;5.32;;;3.03;;
42030;SDS011;27709;52.036;5.906;2023-03-01T15:22:51;5.50;;;2.95;;
42030;SDS011;27709;52.036;5.906;2023-03-01T15:25:19;4.13;;;2.42;;
42030;SDS011;27709;52.036;5.906;2023-03-01T15:27:49;4.50;;;2.92;;
42030;SDS011;27709;52.036;5.906;2023-03-01T15:30:27;5.65;;;3.28;;
42030;SDS011;27709;52.036;5.906;2023-03-01T15:33:20;4.70;;;2.72;;
42030;SDS011;27709;52.036;5.906;2023-03-01T15:35:59;5.03;;;2.83;;
42030;SDS011;27709;52.036;5.906;2023-03-01T15:38:27;5.45;;;2.63;;
42030;SDS011;27709;52.036;5.906;2023-03-01T15:40:55;4.38;;;2.40;;
42030;SDS011;27709;52.036;5.906;2023-03-01T15:43:36;4.50;;;2.72;;
42030;SDS011;27709;52.036;5.906;2023-03-01T15:48:44;3.80;;;2.30;;
42030;SDS011;27709;52.036;5.906;2023-03-01T15:51:17;4.55;;;2.30;;
42030;SDS011;27709;52.036;5.906;2023-03-01T15:53:51;4.50;;;2.20;;
42030;SDS011;27709;52.036;5.906;2023-03-01T15:56:17;5.13;;;2.15;;
42030;SDS011;27709;52.036;5.906;2023-03-01T15:58:43;4.53;;;2.03;;
42030;SDS011;27709;52.036;5.906;2023-03-01T16:01:13;6.28;;;2.33;;
42030;SDS011;27709;52.036;5.906;2023-03-01T16:03:40;4.45;;;2.25;;
42030;SDS011;27709;52.036;5.906;2023-03-01T16:06:06;5.15;;;2.45;;
42030;SDS011;27709;52.036;5.906;2023-03-01T16:08:33;4.03;;;2.35;;
42030;SDS011;27709;52.036;5.906;2023-03-01T16:10:58;5.05;;;2.30;;
42030;SDS011;27709;52.036;5.906;2023-03-01T16:13:24;4.03;;;2.03;;
42030;SDS011;27709;52.036;5.906;2023-03-01T16:15:50;4.45;;;2.10;;
42030;SDS011;27709;52.036;5.906;2023-03-01T16:18:16;6.28;;;2.30;;
42030;SDS011;27709;52.036;5.906;2023-03-01T16:20:42;4.88;;;2.30;;
42030;SDS011;27709;52.036;5.906;2023-03-01T16:23:08;4.00;;;1.70;;
42030;SDS011;27709;52.036;5.906;2023-03-01T16:25:35;4.80;;;2.70;;
42030;SDS011;27709;52.036;5.906;2023-03-01T16:28:02;5.00;;;2.60;;
42030;SDS011;27709;52.036;5.906;2023-03-01T16:30:33;4.70;;;2.08;;
42030;SDS011;27709;52.036;5.906;2023-03-01T16:33:00;5.15;;;2.42;;
42030;SDS011;27709;52.036;5.906;2023-03-01T16:35:25;3.90;;;2.38;;
42030;SDS011;27709;52.036;5.906;2023-03-01T16:37:51;3.70;;;1.95;;
42030;SDS011;27709;52.036;5.906;2023-03-01T16:40:20;4.88;;;2.13;;
42030;SDS011;27709;52.036;5.906;2023-03-01T16:42:51;5.75;;;2.50;;
42030;SDS011;27709;52.036;5.906;2023-03-01T16:45:18;4.80;;;2.33;;
42030;SDS011;27709;52.036;5.906;2023-03-01T16:47:44;6.18;;;3.88;;
42030;SDS011;27709;52.036;5.906;2023-03-01T16:50:10;5.00;;;2.75;;
42030;SDS011;27709;52.036;5.906;2023-03-01T16:52:36;4.25;;;2.33;;
42030;SDS011;27709;52.036;5.906;2023-03-01T16:55:02;4.00;;;2.20;;
42030;SDS011;27709;52.036;5.906;2023-03-01T16:57:29;4.00;;;2.40;;
42030;SDS011;27709;52.036;5.906;2023-03-01T16:59:55;4.20;;;1.77;;
42030;SDS011;27709;52.036;5.906;2023-03-01T17:02:21;4.07;;;2.38;;
42030;SDS011;27709;52.036;5.906;2023-03-01T17:04:53;5.45;;;2.22;;
42030;SDS011;27709;52.036;5.906;2023-03-01T17:07:20;5.03;;;1.80;;
42030;SDS011;27709;52.036;5.906;2023-03-01T17:09:46;3.47;;;2.03;;
42030;SDS011;27709;52.036;5.906;2023-03-01T17:12:12;4.45;;;2.03;;
42030;SDS011;27709;52.036;5.906;2023-03-01T17:14:39;3.70;;;2.20;;
42030;SDS011;27709;52.036;5.906;2023-03-01T17:17:06;4.10;;;2.40;;
42030;SDS011;27709;52.036;5.906;2023-03-01T17:19:32;4.00;;;1.95;;
42030;SDS011;27709;52.036;5.906;2023-03-01T17:22:00;5.20;;;2.75;;
42030;SDS011;27709;52.036;5.906;2023-03-01T17:24:26;4.28;;;2.33;;
42030;SDS011;27709;52.036;5.906;2023-03-01T17:26:52;4.50;;;2.15;;
42030;SDS011;27709;52.036;5.906;2023-03-01T17:29:17;7.20;;;2.60;;
42030;SDS011;27709;52.036;5.906;2023-03-01T17:31:43;4.47;;;2.30;;
42030;SDS011;27709;52.036;5.906;2023-03-01T17:34:08;4.50;;;2.53;;
42030;SDS011;27709;52.036;5.906;2023-03-01T17:36:34;5.32;;;2.47;;
42030;SDS011;27709;52.036;5.906;2023-03-01T17:39:05;4.93;;;2.60;;
42030;SDS011;27709;52.036;5.906;2023-03-01T17:41:31;5.30;;;2.75;;
42030;SDS011;27709;52.036;5.906;2023-03-01T17:43:56;5.50;;;2.65;;
42030;SDS011;27709;52.036;5.906;2023-03-01T17:46:22;5.80;;;2.67;;
42030;SDS011;27709;52.036;5.906;2023-03-01T17:48:48;5.25;;;2.50;;
42030;SDS011;27709;52.036;5.906;2023-03-01T17:51:14;5.95;;;2.53;;
42030;SDS011;27709;52.036;5.906;2023-03-01T17:53:39;4.35;;;2.55;;
42030;SDS011;27709;52.036;5.906;2023-03-01T17:56:05;4.93;;;2.83;;
42030;SDS011;27709;52.036;5.906;2023-03-01T17:58:32;5.60;;;3.08;;
42030;SDS011;27709;52.036;5.906;2023-03-01T18:01:07;4.38;;;2.90;;
42030;SDS011;27709;52.036;5.906;2023-03-01T18:03:35;5.20;;;2.90;;
42030;SDS011;27709;52.036;5.906;2023-03-01T18:06:00;4.93;;;2.88;;
42030;SDS011;27709;52.036;5.906;2023-03-01T18:08:28;4.53;;;2.80;;
42030;SDS011;27709;52.036;5.906;2023-03-01T18:10:57;5.88;;;2.90;;
42030;SDS011;27709;52.036;5.906;2023-03-01T18:13:23;5.07;;;2.80;;
42030;SDS011;27709;52.036;5.906;2023-03-01T18:15:48;5.82;;;2.83;;
42030;SDS011;27709;52.036;5.906;2023-03-01T18:18:14;5.70;;;2.90;;
42030;SDS011;27709;52.036;5.906;2023-03-01T18:20:39;5.20;;;2.53;;
42030;SDS011;27709;52.036;5.906;2023-03-01T18:23:05;5.43;;;2.90;;
42030;SDS011;27709;52.036;5.906;2023-03-01T18:25:30;6.20;;;3.00;;